North Platte, NE

10:12 PM CDT on October 31, 2014 (GMT -0500)
K0KDC North Platte | Change Station
CLOSE
Current Station
Personal Weather Station
Location: North Platte, NE
Elevation: 2808 ft
Nearby Weather Stations

Elev 2808 ft 41.14 °N, 100.77 °W | Updated 3 minutes ago

Clear
Clear
35.7 °F
Feels Like 30 °F
N
7.0
Wind Variable Wind from SSE
Gusts 14.0 mph

Today
High -- | Low -- °F
--% Chance of Precip.
Yesterday
High -- | Low -- °F
Precip. -- in
8:13 AM 6:39 PM
First Quarter, 61% visible
Pressure 30.35 in
Visibility 10.0 miles
Clouds Clear
Windchill 30 °F
Dew Point 14 °F
Humidity 41%
Rainfall -999.00 in
Snow Depth Not available.
UV 0 out of 12
Pollen .10 out of 12
Air Quality Not available.
Flu Activity Not available.
METAR KLBF 010253Z AUTO 14009KT 10SM CLR 02/M11 A3028 RMK AO2 SLP275 T00171111 58009

More Conditions Fewer Conditions

Pressure 30.35 in
Visibility 10.0 miles
Clouds Clear
Windchill 30 °F
Dew Point 14 °F
Humidity 41%
Rainfall -999.00 in
Snow Depth Not available.
UV 0 out of 12
Pollen .10 out of 12
Air Quality Not available.
Flu Activity Not available.
METAR KLBF 010253Z AUTO 14009KT 10SM CLR 02/M11 A3028 RMK AO2 SLP275 T00171111 58009

More Conditions Fewer Conditions

10-Day Weather Forecast

Almanac

Astronomy

Oct. 31, 2014 Rise Set
Actual Time
Civil Twilight
Nautical Twilight
Astronomical Twilight
Moon
Length of Visible Light
Length of Day
Tomorrow will be .
, % of the Moon is Illuminated

Today's Extremes

State Highs State Lows

Community

WunderPhotos

Upload Photos

1,766,837 photos uploaded!

WunderBlogs® & News

Nearby

Air Quality

  Air Quality AQ Index Pollutant
Not available.

Snow Depth

Station Depth Elevation

Earthquake Activity

City Distance Mag. Time & Date
Minimum magnitude displayed is 2.5.

Coastal Water Temperatures

Place Temperature

Nearby Weather Stations